Time;durP1;ratioP1;P1;durP2;ratioP2;P2;SDS_P1;SDS_P2;PMS_P1;PMS_P2;Temp;Humidity;BMP_temperature;BMP_pressure;BME280_temperature;BME280_humidity;BME280_pressure;Samples;Min_cycle;Max_cycle;Signal;HPM_P1;HPM_P2
2021/07/10 00:02:21;;;;;;;67.47;38.67;;;13.40;99.90;;;;;;4954787;28;20055;-75
2021/07/10 00:04:49;;;;;;;132.23;53.00;;;13.30;99.90;;;;;;4930536;28;20055;-74
2021/07/10 00:07:15;;;;;;;98.95;48.42;;;13.30;99.90;;;;;;4958880;28;20049;-75
2021/07/10 00:09:42;;;;;;;89.28;43.03;;;13.30;99.90;;;;;;4963020;28;20566;-75
2021/07/10 00:12:09;;;;;;;80.93;43.08;;;13.20;99.90;;;;;;4960686;28;20062;-75
2021/07/10 00:14:36;;;;;;;86.00;43.33;;;13.20;99.90;;;;;;4958152;28;20071;-74
2021/07/10 00:17:03;;;;;;;60.85;36.15;;;13.20;99.90;;;;;;4947561;28;20057;-75
2021/07/10 00:19:30;;;;;;;74.53;40.00;;;13.20;99.90;;;;;;4966449;28;20051;-75
2021/07/10 00:21:57;;;;;;;66.57;38.17;;;13.20;99.90;;;;;;4964955;28;20109;-74
2021/07/10 00:24:24;;;;;;;80.00;39.45;;;13.20;99.90;;;;;;4964105;28;20055;-74
2021/07/10 00:26:51;;;;;;;66.22;38.92;;;13.10;99.90;;;;;;4948281;28;20051;-74
2021/07/10 00:29:18;;;;;;;61.15;38.42;;;12.90;99.90;;;;;;4955242;28;20047;-75
2021/07/10 00:31:45;;;;;;;55.55;34.83;;;12.90;99.90;;;;;;4943642;28;20065;-74
2021/07/10 00:34:12;;;;;;;57.53;35.45;;;12.90;99.90;;;;;;4929177;29;20747;-74
2021/07/10 00:36:39;;;;;;;63.75;36.80;;;12.90;99.90;;;;;;4934822;28;20053;-74
2021/07/10 00:39:06;;;;;;;58.75;37.60;;;13.00;99.90;;;;;;4947643;28;20042;-75
2021/07/10 00:41:33;;;;;;;62.95;37.42;;;12.90;99.90;;;;;;4963570;28;20249;-75
2021/07/10 00:44:00;;;;;;;88.47;43.42;;;12.90;99.90;;;;;;4964639;28;20183;-74
2021/07/10 00:46:27;;;;;;;77.93;41.90;;;12.90;99.90;;;;;;4946434;28;21404;-75
2021/07/10 00:48:54;;;;;;;66.93;41.13;;;12.80;99.90;;;;;;4948078;28;20050;-74
2021/07/10 00:51:21;;;;;;;68.70;40.65;;;12.80;99.90;;;;;;4961475;28;20125;-74
2021/07/10 00:53:49;;;;;;;70.55;37.58;;;12.80;99.90;;;;;;4964129;28;20042;-75
2021/07/10 00:56:17;;;;;;;74.80;40.92;;;12.80;99.90;;;;;;4931768;28;20121;-74
2021/07/10 00:58:45;;;;;;;52.60;34.03;;;12.60;99.90;;;;;;4913930;29;20147;-75
2021/07/10 01:01:12;;;;;;;92.15;42.65;;;12.60;99.90;;;;;;4943383;28;20043;-74
2021/07/10 01:03:42;;;;;;;107.78;47.10;;;12.60;99.90;;;;;;4944535;28;20055;-74
2021/07/10 01:06:09;;;;;;;120.05;52.85;;;12.50;99.90;;;;;;4912255;28;20047;-74
2021/07/10 01:08:35;;;;;;;87.38;44.63;;;12.50;99.90;;;;;;4962149;28;20051;-75
2021/07/10 01:11:03;;;;;;;66.95;39.72;;;12.70;99.90;;;;;;4939704;28;20047;-75
2021/07/10 01:13:30;;;;;;;64.25;35.60;;;12.60;99.90;;;;;;4945898;28;20138;-75
2021/07/10 01:15:58;;;;;;;61.53;35.70;;;12.40;99.90;;;;;;4943964;28;20082;-74
2021/07/10 01:18:26;;;;;;;112.75;53.60;;;12.30;99.90;;;;;;4955671;28;20498;-75
2021/07/10 01:20:53;;;;;;;83.85;44.13;;;12.30;99.90;;;;;;4946479;28;20450;-74
2021/07/10 01:23:23;;;;;;;68.10;38.63;;;12.20;99.90;;;;;;4954363;28;20051;-74
2021/07/10 01:25:51;;;;;;;61.60;37.30;;;12.10;99.90;;;;;;4928066;29;20051;-74
2021/07/10 01:28:19;;;;;;;58.17;33.97;;;12.10;99.90;;;;;;4933932;28;20106;-74
2021/07/10 01:30:48;;;;;;;56.78;31.92;;;12.10;99.90;;;;;;4927294;29;20057;-74
2021/07/10 01:33:16;;;;;;;71.32;37.72;;;12.00;99.90;;;;;;4946593;28;20134;-75
2021/07/10 01:35:43;;;;;;;63.78;38.03;;;12.10;99.90;;;;;;4946186;28;20055;-76
2021/07/10 01:38:13;;;;;;;77.63;41.05;;;12.30;99.90;;;;;;4946372;28;20051;-75
2021/07/10 01:40:40;;;;;;;69.07;40.10;;;12.30;99.90;;;;;;4946954;28;20042;-76
2021/07/10 01:43:07;;;;;;;78.80;39.83;;;12.20;99.90;;;;;;4964230;28;20289;-76
2021/07/10 01:45:36;;;;;;;77.07;41.25;;;12.10;99.90;;;;;;4965509;28;20125;-74
2021/07/10 01:48:05;;;;;;;69.90;36.60;;;12.10;99.90;;;;;;4964773;28;20188;-74
2021/07/10 01:50:32;;;;;;;111.32;46.83;;;12.00;99.90;;;;;;4963503;28;20141;-74
2021/07/10 01:52:59;;;;;;;66.40;40.03;;;12.00;99.90;;;;;;4949803;28;20504;-75
2021/07/10 01:55:28;;;;;;;77.60;43.53;;;12.00;99.90;;;;;;4935232;28;20097;-75
2021/07/10 01:57:56;;;;;;;64.65;38.92;;;11.90;99.90;;;;;;4945217;28;20084;-75
2021/07/10 02:00:28;;;;;;;86.72;45.55;;;12.00;99.90;;;;;;4949398;28;20069;-75
2021/07/10 02:02:56;;;;;;;76.13;41.83;;;12.10;99.90;;;;;;4921284;29;20491;-74
2021/07/10 02:05:25;;;;;;;82.20;42.78;;;12.00;99.90;;;;;;4951226;28;20082;-74
2021/07/10 02:07:53;;;;;;;89.65;42.88;;;11.80;99.90;;;;;;4962690;28;20078;-76
2021/07/10 02:10:21;;;;;;;99.88;48.40;;;11.70;99.90;;;;;;4946496;28;20058;-75
2021/07/10 02:12:57;;;;;;;66.47;39.75;;;11.80;99.90;;;;;;4962955;28;20158;-75
2021/07/10 02:15:25;;;;;;;86.57;46.85;;;11.80;99.90;;;;;;4963915;28;20050;-74
2021/07/10 02:17:53;;;;;;;63.38;38.83;;;11.70;99.90;;;;;;4941639;28;20039;-75
2021/07/10 02:20:22;;;;;;;69.28;37.75;;;11.60;99.90;;;;;;4943047;28;20110;-75
2021/07/10 02:22:50;;;;;;;64.13;39.83;;;11.50;99.90;;;;;;4926999;29;20136;-75
2021/07/10 02:25:19;;;;;;;62.53;39.50;;;11.50;99.90;;;;;;4942543;28;20126;-74
2021/07/10 02:27:46;;;;;;;55.55;36.45;;;11.40;99.90;;;;;;4941661;28;20110;-75
2021/07/10 02:30:22;;;;;;;51.55;33.80;;;11.50;99.90;;;;;;4962191;28;20487;-75
2021/07/10 02:32:49;;;;;;;68.55;39.75;;;11.40;99.90;;;;;;4951702;28;20122;-75
2021/07/10 02:35:16;;;;;;;53.90;35.92;;;11.40;99.90;;;;;;4935430;28;20130;-74
2021/07/10 02:37:46;;;;;;;51.78;34.83;;;11.40;99.90;;;;;;4961621;28;20081;-74
2021/07/10 02:40:14;;;;;;;65.28;38.85;;;11.30;99.90;;;;;;4961580;28;20058;-75
2021/07/10 02:42:41;;;;;;;62.78;35.85;;;11.40;99.90;;;;;;4960482;28;20089;-75
2021/07/10 02:45:10;;;;;;;66.10;35.90;;;11.30;99.90;;;;;;4961037;28;20562;-75
2021/07/10 02:47:38;;;;;;;58.65;33.67;;;11.30;99.90;;;;;;4946930;28;20480;-75
2021/07/10 02:50:08;;;;;;;73.22;39.60;;;11.30;99.90;;;;;;4946851;28;20168;-75
2021/07/10 02:52:34;;;;;;;64.07;37.22;;;11.20;99.90;;;;;;4936053;28;20051;-75
2021/07/10 02:55:03;;;;;;;69.60;37.72;;;11.30;99.90;;;;;;4948269;28;20063;-75
2021/07/10 02:57:30;;;;;;;59.35;35.38;;;11.40;99.90;;;;;;4946253;28;20157;-75
2021/07/10 02:59:57;;;;;;;72.35;39.35;;;11.20;99.90;;;;;;4962159;28;20658;-74
2021/07/10 03:02:24;;;;;;;66.10;39.17;;;11.20;99.90;;;;;;4959422;28;20135;-75
2021/07/10 03:04:51;;;;;;;83.80;44.72;;;11.30;99.90;;;;;;4962284;28;20063;-74
2021/07/10 03:07:18;;;;;;;89.82;48.08;;;11.50;99.90;;;;;;4960726;28;20743;-76
2021/07/10 03:09:45;;;;;;;94.20;48.42;;;11.40;99.90;;;;;;4948697;28;20220;-75
2021/07/10 03:12:12;;;;;;;96.85;50.05;;;11.40;99.90;;;;;;4964792;28;20092;-74
2021/07/10 03:14:39;;;;;;;99.65;50.40;;;11.40;99.90;;;;;;4949986;28;20042;-73
2021/07/10 03:17:05;;;;;;;80.03;47.30;;;11.50;99.90;;;;;;4960950;28;20053;-75
2021/07/10 03:19:32;;;;;;;118.13;56.97;;;11.40;99.90;;;;;;4962380;28;20655;-76
2021/07/10 03:21:59;;;;;;;100.45;48.97;;;11.30;99.90;;;;;;4944689;28;20166;-75
2021/07/10 03:24:26;;;;;;;82.40;47.25;;;11.40;99.90;;;;;;4930001;29;20102;-74
2021/07/10 03:26:53;;;;;;;88.55;48.97;;;11.40;99.90;;;;;;4955176;28;20062;-74
2021/07/10 03:29:20;;;;;;;73.07;42.85;;;11.30;99.90;;;;;;4964697;28;20587;-75
2021/07/10 03:31:47;;;;;;;78.40;43.10;;;11.30;99.90;;;;;;4944861;28;20047;-75
2021/07/10 03:34:14;;;;;;;94.40;48.70;;;11.20;99.90;;;;;;4945578;28;20700;-75
2021/07/10 03:36:41;;;;;;;100.35;46.95;;;11.30;99.90;;;;;;4935028;28;20083;-74
2021/07/10 03:39:08;;;;;;;117.28;52.47;;;11.40;99.90;;;;;;4940355;28;20066;-76
2021/07/10 03:41:35;;;;;;;136.45;61.13;;;11.10;99.90;;;;;;4958059;28;20230;-75
2021/07/10 03:44:02;;;;;;;145.27;62.38;;;11.20;99.90;;;;;;4945298;28;20059;-76
2021/07/10 03:46:29;;;;;;;132.70;60.22;;;11.30;99.90;;;;;;4928014;28;20117;-75
2021/07/10 03:48:56;;;;;;;136.43;61.67;;;11.30;99.90;;;;;;4944184;28;20122;-74
2021/07/10 03:51:24;;;;;;;146.50;62.92;;;11.50;99.90;;;;;;4926745;28;20047;-75
2021/07/10 03:53:51;;;;;;;158.48;66.72;;;11.60;99.90;;;;;;4929377;28;20660;-74
2021/07/10 03:56:19;;;;;;;146.45;63.55;;;11.40;99.90;;;;;;4947379;28;20043;-74
2021/07/10 03:58:47;;;;;;;138.15;64.35;;;11.40;99.90;;;;;;4947600;28;20137;-74
2021/07/10 04:01:14;;;;;;;135.43;60.97;;;11.50;99.90;;;;;;4943599;28;20098;-76
2021/07/10 04:03:41;;;;;;;153.18;67.57;;;11.50;99.90;;;;;;4945871;28;20637;-76
2021/07/10 04:06:08;;;;;;;113.30;54.60;;;11.60;99.90;;;;;;4960038;28;20141;-76
2021/07/10 04:08:35;;;;;;;94.15;50.25;;;11.50;99.90;;;;;;4954880;28;20038;-76
2021/07/10 04:11:02;;;;;;;90.10;46.80;;;11.40;99.90;;;;;;4928702;29;20487;-74
2021/07/10 04:13:29;;;;;;;78.43;42.55;;;11.40;99.90;;;;;;4928831;29;20051;-74
2021/07/10 04:15:57;;;;;;;77.10;44.25;;;11.40;99.90;;;;;;4927267;28;20118;-74
2021/07/10 04:18:24;;;;;;;91.07;47.95;;;11.60;99.90;;;;;;4928019;29;20723;-75
2021/07/10 04:20:51;;;;;;;91.40;50.20;;;11.50;99.90;;;;;;4944243;28;20058;-74
2021/07/10 04:23:18;;;;;;;95.70;51.80;;;11.70;99.90;;;;;;4944610;28;20403;-75
2021/07/10 04:25:45;;;;;;;75.80;42.20;;;11.80;99.90;;;;;;4927814;29;20055;-74
2021/07/10 04:28:12;;;;;;;73.57;41.75;;;11.70;99.90;;;;;;4947032;28;20054;-75
2021/07/10 04:30:39;;;;;;;70.15;39.78;;;11.80;99.90;;;;;;4939165;28;20051;-74
2021/07/10 04:33:06;;;;;;;57.83;36.35;;;11.80;99.90;;;;;;4928718;29;20062;-75
2021/07/10 04:35:33;;;;;;;70.00;41.33;;;11.80;99.90;;;;;;4944681;28;20077;-74
2021/07/10 04:38:00;;;;;;;57.72;36.70;;;12.00;99.90;;;;;;4949165;28;20051;-75
2021/07/10 04:40:27;;;;;;;56.50;37.22;;;12.20;99.90;;;;;;4963118;28;20579;-75
2021/07/10 04:42:55;;;;;;;58.67;38.72;;;12.50;99.90;;;;;;4940115;29;20051;-75
2021/07/10 04:45:22;;;;;;;54.10;36.92;;;12.80;99.90;;;;;;4925682;28;20123;-75
2021/07/10 04:47:49;;;;;;;52.72;36.05;;;12.90;99.90;;;;;;4944113;29;20534;-76
2021/07/10 04:50:17;;;;;;;62.65;39.13;;;13.10;99.90;;;;;;4959557;28;20054;-75
2021/07/10 04:52:44;;;;;;;65.43;39.90;;;13.20;99.90;;;;;;4950564;28;20093;-74
2021/07/10 04:55:12;;;;;;;50.65;36.72;;;13.50;99.90;;;;;;4943909;28;20023;-75
2021/07/10 04:57:40;;;;;;;56.00;36.60;;;13.50;99.90;;;;;;4943359;28;20047;-75
2021/07/10 05:00:08;;;;;;;51.83;34.45;;;13.80;99.90;;;;;;4956035;28;20070;-74
2021/07/10 05:02:35;;;;;;;53.70;37.50;;;13.90;99.90;;;;;;4931134;28;20047;-76
2021/07/10 05:05:03;;;;;;;58.33;38.22;;;14.10;99.90;;;;;;4947479;28;20047;-75
2021/07/10 05:07:35;;;;;;;46.45;34.80;;;14.20;99.90;;;;;;4942884;28;20169;-76
2021/07/10 05:10:04;;;;;;;58.00;37.95;;;14.50;99.90;;;;;;4946822;28;20170;-74
2021/07/10 05:12:31;;;;;;;55.50;38.65;;;14.60;99.90;;;;;;4945372;28;20051;-75
2021/07/10 05:14:58;;;;;;;55.90;38.42;;;14.70;99.90;;;;;;4943346;28;20500;-75
2021/07/10 05:17:25;;;;;;;62.28;41.83;;;14.50;99.90;;;;;;4942575;28;20054;-76
2021/07/10 05:19:52;;;;;;;50.17;34.60;;;14.60;99.90;;;;;;4945377;28;20252;-74
2021/07/10 05:22:19;;;;;;;59.15;38.22;;;14.70;99.90;;;;;;4926282;29;20035;-75
2021/07/10 05:24:46;;;;;;;58.20;41.95;;;15.10;99.90;;;;;;4941638;28;20138;-74
2021/07/10 05:27:13;;;;;;;56.85;41.38;;;15.50;99.90;;;;;;4927003;29;20047;-74
2021/07/10 05:29:40;;;;;;;57.30;40.95;;;15.70;99.90;;;;;;4944141;28;20122;-75
2021/07/10 05:32:07;;;;;;;56.97;41.22;;;16.10;99.90;;;;;;4941934;28;20146;-76
2021/07/10 05:34:34;;;;;;;58.05;43.55;;;16.40;99.90;;;;;;4943781;28;20578;-74
2021/07/10 05:37:01;;;;;;;51.30;37.45;;;16.60;99.90;;;;;;4955221;28;20043;-75
2021/07/10 05:39:28;;;;;;;55.60;38.45;;;16.80;99.90;;;;;;4962312;28;20105;-75
2021/07/10 05:41:55;;;;;;;60.33;40.05;;;17.20;99.90;;;;;;4961739;28;20043;-75
2021/07/10 05:44:22;;;;;;;50.53;38.03;;;17.40;99.90;;;;;;4946129;28;20057;-76
2021/07/10 05:46:49;;;;;;;46.58;35.47;;;17.70;99.90;;;;;;4952229;28;20652;-76
2021/07/10 05:49:17;;;;;;;48.15;37.72;;;18.00;99.90;;;;;;4942256;29;20058;-76
2021/07/10 05:51:43;;;;;;;50.42;36.20;;;18.30;99.90;;;;;;4941575;28;20669;-76
2021/07/10 05:54:10;;;;;;;50.30;34.63;;;18.40;99.90;;;;;;4943052;28;20550;-76
2021/07/10 05:56:37;;;;;;;46.83;37.17;;;18.60;99.90;;;;;;4942279;28;20074;-76
2021/07/10 05:59:04;;;;;;;50.22;37.25;;;18.70;99.90;;;;;;4944501;28;20058;-76
2021/07/10 06:01:31;;;;;;;48.85;36.38;;;18.70;99.90;;;;;;4942258;28;20054;-75
2021/07/10 06:03:59;;;;;;;44.38;37.03;;;19.00;99.90;;;;;;4961695;28;20157;-75
2021/07/10 06:06:26;;;;;;;49.67;36.35;;;19.10;99.90;;;;;;4955744;28;20417;-76
2021/07/10 06:08:53;;;;;;;46.00;35.10;;;19.10;99.90;;;;;;4955026;28;20047;-73
2021/07/10 06:11:20;;;;;;;46.70;36.97;;;19.10;99.90;;;;;;4957071;28;20050;-76
2021/07/10 06:13:47;;;;;;;46.17;36.85;;;19.20;99.90;;;;;;4944690;28;20473;-75
2021/07/10 06:16:17;;;;;;;47.03;36.80;;;19.40;99.90;;;;;;4944853;28;20063;-76
2021/07/10 06:18:44;;;;;;;51.55;36.65;;;19.20;99.90;;;;;;4935604;28;20058;-75
2021/07/10 06:21:11;;;;;;;47.22;36.38;;;19.30;99.90;;;;;;4947691;28;20066;-75
2021/07/10 06:23:39;;;;;;;46.25;37.67;;;19.40;99.90;;;;;;4945120;28;20118;-76
2021/07/10 06:26:06;;;;;;;46.60;37.83;;;19.60;99.90;;;;;;4945771;28;20073;-75
2021/07/10 06:28:33;;;;;;;48.85;36.83;;;19.80;99.90;;;;;;4952648;28;20084;-75
2021/07/10 06:31:00;;;;;;;46.42;35.78;;;20.00;99.90;;;;;;4966851;28;20039;-75
2021/07/10 06:33:27;;;;;;;45.97;37.35;;;20.00;99.90;;;;;;4943715;28;20046;-74
2021/07/10 06:35:54;;;;;;;45.95;36.58;;;19.70;99.90;;;;;;4950218;28;20051;-74
2021/07/10 06:38:21;;;;;;;45.97;34.80;;;19.70;99.90;;;;;;4966108;28;20058;-74
2021/07/10 06:40:48;;;;;;;48.22;36.80;;;19.80;99.90;;;;;;4967046;28;20054;-75
2021/07/10 06:43:15;;;;;;;47.58;37.90;;;19.90;99.90;;;;;;4967516;28;20513;-76
2021/07/10 06:45:42;;;;;;;48.28;35.50;;;19.70;99.90;;;;;;4950123;28;20050;-76
2021/07/10 06:48:10;;;;;;;44.60;36.13;;;19.60;99.90;;;;;;4960553;28;20047;-75
2021/07/10 06:50:37;;;;;;;42.58;35.80;;;19.60;99.90;;;;;;4949282;28;20130;-74
2021/07/10 06:53:04;;;;;;;38.45;33.65;;;19.70;99.90;;;;;;4951459;28;20496;-75
2021/07/10 06:55:31;;;;;;;43.45;34.67;;;19.80;99.90;;;;;;4932166;28;20050;-74
2021/07/10 06:57:58;;;;;;;41.95;34.50;;;20.10;99.90;;;;;;4932364;29;20059;-74
2021/07/10 07:00:25;;;;;;;43.33;35.70;;;20.50;99.90;;;;;;4931033;28;20043;-75
2021/07/10 07:02:52;;;;;;;43.85;37.67;;;20.30;99.90;;;;;;4931644;29;20059;-75
2021/07/10 07:05:19;;;;;;;42.95;37.10;;;20.50;99.90;;;;;;4930775;28;20062;-75
2021/07/10 07:07:46;;;;;;;43.72;35.80;;;20.80;99.90;;;;;;4965119;28;20062;-75
2021/07/10 07:10:14;;;;;;;38.08;33.97;;;20.90;99.90;;;;;;4948786;28;20624;-76
2021/07/10 07:12:42;;;;;;;46.35;38.30;;;21.20;99.90;;;;;;4947274;28;20511;-74
2021/07/10 07:15:11;;;;;;;41.28;36.88;;;21.40;99.90;;;;;;4946552;28;20059;-75
2021/07/10 07:17:38;;;;;;;40.53;35.85;;;21.60;99.90;;;;;;4933925;29;20245;-75
2021/07/10 07:20:09;;;;;;;42.78;38.08;;;21.60;99.90;;;;;;4927812;29;20415;-75
2021/07/10 07:22:38;;;;;;;40.75;35.83;;;21.50;99.90;;;;;;4947560;28;20047;-75
2021/07/10 07:25:06;;;;;;;41.38;35.92;;;21.50;99.90;;;;;;4948816;28;20051;-74
2021/07/10 07:27:33;;;;;;;40.78;36.35;;;21.50;99.90;;;;;;4944343;28;20109;-76
2021/07/10 07:30:00;;;;;;;39.00;34.15;;;21.70;99.90;;;;;;4972410;28;20051;-75
2021/07/10 07:32:29;;;;;;;39.83;35.60;;;22.00;99.90;;;;;;4963818;28;20043;-77
2021/07/10 07:34:56;;;;;;;39.50;35.47;;;22.20;99.90;;;;;;4933416;29;20062;-79
2021/07/10 07:37:23;;;;;;;38.25;34.20;;;22.50;99.90;;;;;;4945483;28;20141;-79
2021/07/10 07:39:50;;;;;;;40.78;36.13;;;22.60;99.90;;;;;;4953548;28;20135;-79
2021/07/10 07:42:18;;;;;;;40.97;36.08;;;22.80;99.90;;;;;;4948196;28;20078;-80
2021/07/10 07:44:45;;;;;;;40.05;33.38;;;22.50;99.90;;;;;;4931883;29;20059;-79
2021/07/10 07:47:14;;;;;;;39.80;34.70;;;22.00;99.90;;;;;;4934210;28;20193;-79
2021/07/10 07:49:42;;;;;;;38.42;34.33;;;21.70;99.90;;;;;;4968120;28;20142;-80
2021/07/10 07:52:09;;;;;;;41.63;34.13;;;21.50;99.90;;;;;;4941930;28;20043;-78
2021/07/10 07:54:36;;;;;;;37.65;33.58;;;21.10;99.90;;;;;;4947104;28;20098;-79
2021/07/10 07:57:04;;;;;;;40.15;34.22;;;21.00;99.90;;;;;;4932094;29;20051;-78
2021/07/10 07:59:31;;;;;;;47.70;36.53;;;20.80;99.90;;;;;;4937743;28;20491;-80
2021/07/10 08:01:59;;;;;;;42.00;34.33;;;20.70;99.90;;;;;;4938153;28;20057;-79
2021/07/10 08:04:26;;;;;;;44.20;35.38;;;21.00;99.90;;;;;;4932188;29;20145;-80
2021/07/10 08:06:53;;;;;;;42.22;35.33;;;21.00;99.90;;;;;;4957302;28;20054;-79
2021/07/10 08:09:21;;;;;;;39.40;35.22;;;21.00;99.90;;;;;;4964009;28;20055;-79
2021/07/10 08:11:47;;;;;;;39.47;35.08;;;21.10;99.90;;;;;;4967760;28;20050;-80
2021/07/10 08:14:14;;;;;;;40.40;34.63;;;21.50;99.90;;;;;;4967365;28;20167;-79
2021/07/10 08:16:41;;;;;;;40.35;35.78;;;22.00;99.90;;;;;;4934718;28;20380;-79
2021/07/10 08:19:08;;;;;;;38.53;34.33;;;22.40;99.90;;;;;;4951097;28;20596;-79
2021/07/10 08:21:35;;;;;;;41.17;35.90;;;22.60;99.90;;;;;;4949556;28;20650;-79
2021/07/10 08:24:03;;;;;;;41.38;37.10;;;22.70;99.90;;;;;;4966755;28;20147;-79
2021/07/10 08:26:31;;;;;;;33.42;29.83;;;22.60;99.90;;;;;;4934438;28;20146;-79
2021/07/10 08:28:57;;;;;;;32.35;28.83;;;22.40;99.90;;;;;;4942029;28;20067;-79
2021/07/10 08:31:26;;;;;;;33.10;29.73;;;22.40;99.90;;;;;;4945532;28;20043;-78
2021/07/10 08:33:53;;;;;;;36.47;31.20;;;22.40;99.90;;;;;;4947445;28;20284;-80
2021/07/10 08:36:20;;;;;;;34.58;31.13;;;22.50;99.90;;;;;;4936251;28;20043;-79
2021/07/10 08:38:47;;;;;;;32.60;29.23;;;22.80;99.90;;;;;;4949571;28;20054;-79
2021/07/10 08:41:14;;;;;;;32.83;29.50;;;23.30;99.90;;;;;;4934621;28;20522;-79
2021/07/10 08:43:43;;;;;;;34.42;30.65;;;23.30;99.90;;;;;;4966000;28;20063;-80
2021/07/10 08:46:13;;;;;;;31.55;28.38;;;23.60;99.90;;;;;;4966684;28;20059;-79
2021/07/10 08:48:41;;;;;;;31.50;28.33;;;23.90;99.90;;;;;;4950730;28;20292;-79
2021/07/10 08:51:10;;;;;;;26.27;23.92;;;24.20;99.90;;;;;;4931406;29;20051;-80
2021/07/10 08:53:38;;;;;;;26.38;23.77;;;24.40;99.90;;;;;;4930338;29;20051;-79
2021/07/10 08:56:07;;;;;;;27.55;24.85;;;24.50;99.90;;;;;;4946138;28;20183;-80
2021/07/10 08:58:37;;;;;;;26.38;24.13;;;24.30;99.90;;;;;;4946443;28;20043;-79
2021/07/10 09:01:09;;;;;;;28.40;25.90;;;23.90;99.90;;;;;;4947175;28;20050;-79
2021/07/10 09:03:38;;;;;;;29.45;26.65;;;23.70;99.90;;;;;;4947098;28;20526;-78
2021/07/10 09:06:06;;;;;;;28.38;25.80;;;23.60;99.90;;;;;;4934046;28;20190;-79
2021/07/10 09:08:34;;;;;;;24.40;22.38;;;23.90;99.90;;;;;;4965267;28;20519;-79
2021/07/10 09:11:07;;;;;;;23.27;21.10;;;24.00;99.90;;;;;;4948543;28;20467;-79
2021/07/10 09:13:50;;;;;;;20.13;18.00;;;24.20;99.90;;;;;;4965970;28;20500;-79
2021/07/10 09:16:26;;;;;;;20.52;18.70;;;24.20;99.90;;;;;;4965467;28;20072;-80
2021/07/10 09:19:05;;;;;;;20.85;18.98;;;24.30;99.90;;;;;;4934319;28;20054;-80
2021/07/10 09:21:33;;;;;;;18.13;16.83;;;23.90;99.90;;;;;;4932191;28;20051;-79
2021/07/10 09:24:01;;;;;;;19.70;18.00;;;23.80;99.90;;;;;;4934684;28;20046;-79
2021/07/10 09:26:28;;;;;;;20.05;18.30;;;24.10;99.90;;;;;;4966001;28;20057;-79
2021/07/10 09:29:11;;;;;;;19.25;17.48;;;24.30;99.90;;;;;;4925301;28;20382;-80
2021/07/10 09:32:03;;;;;;;19.70;18.23;;;24.50;99.90;;;;;;4943869;28;20055;-79
2021/07/10 09:34:44;;;;;;;19.65;18.02;;;24.50;99.90;;;;;;4931410;29;20706;-79
2021/07/10 09:37:16;;;;;;;18.30;16.90;;;24.50;99.90;;;;;;4958416;28;20691;-77
2021/07/10 09:40:09;;;;;;;17.75;16.33;;;24.90;99.90;;;;;;4965147;28;20051;-79
2021/07/10 09:42:39;;;;;;;19.10;17.35;;;25.00;99.90;;;;;;4947870;28;20130;-77
2021/07/10 09:45:23;;;;;;;19.10;17.52;;;25.00;99.90;;;;;;4964987;28;20050;-78
2021/07/10 09:47:51;;;;;;;18.50;17.00;;;24.60;99.90;;;;;;4966628;28;20051;-77
2021/07/10 09:50:21;;;;;;;22.65;20.50;;;24.70;99.90;;;;;;4961058;28;20130;-77
2021/07/10 09:52:48;;;;;;;21.13;19.23;;;25.00;99.90;;;;;;4960436;28;20054;-77
2021/07/10 09:55:17;;;;;;;21.17;19.23;;;25.10;99.90;;;;;;4949042;28;20049;-77
2021/07/10 09:57:46;;;;;;;20.75;18.95;;;24.70;99.90;;;;;;4965622;28;20109;-78
2021/07/10 10:00:14;;;;;;;19.88;17.92;;;24.40;99.90;;;;;;4945472;28;20055;-79
2021/07/10 10:02:53;;;;;;;20.42;18.65;;;24.60;99.90;;;;;;4931724;29;20102;-78
2021/07/10 10:05:28;;;;;;;18.67;16.98;;;24.70;99.90;;;;;;4945040;28;20051;-78
2021/07/10 10:08:00;;;;;;;19.63;17.85;;;24.50;99.90;;;;;;4948741;28;20055;-78
2021/07/10 10:10:28;;;;;;;20.98;19.23;;;24.40;99.90;;;;;;4957387;28;20061;-77
2021/07/10 10:13:04;;;;;;;18.27;16.77;;;24.50;99.90;;;;;;4965289;28;20043;-78
2021/07/10 10:15:32;;;;;;;19.63;17.83;;;24.70;99.90;;;;;;4950180;28;20384;-78
2021/07/10 10:18:00;;;;;;;20.02;18.38;;;24.80;99.90;;;;;;4951918;28;20101;-78
2021/07/10 10:20:27;;;;;;;18.05;16.55;;;25.10;99.90;;;;;;4960432;28;20077;-78
2021/07/10 10:22:55;;;;;;;17.95;16.48;;;25.00;99.90;;;;;;4952525;28;20410;-78
2021/07/10 10:25:23;;;;;;;18.40;16.80;;;25.00;99.90;;;;;;4973568;28;20426;-79
2021/07/10 10:27:51;;;;;;;18.45;17.13;;;25.00;99.90;;;;;;4972175;28;20055;-80
2021/07/10 10:30:20;;;;;;;20.33;18.65;;;24.90;99.90;;;;;;4951477;28;20111;-78
2021/07/10 10:32:49;;;;;;;20.38;18.75;;;24.50;99.90;;;;;;4964250;29;20055;-79
2021/07/10 10:35:18;;;;;;;20.38;18.63;;;24.40;99.90;;;;;;4930140;28;20083;-78
2021/07/10 10:37:48;;;;;;;20.58;18.55;;;24.40;99.90;;;;;;4948235;29;20047;-79
2021/07/10 10:40:20;;;;;;;19.08;17.58;;;24.40;99.90;;;;;;4973581;28;20047;-79
2021/07/10 10:42:55;;;;;;;20.83;18.88;;;24.50;99.90;;;;;;4958327;28;20051;-79
2021/07/10 10:45:27;;;;;;;20.67;18.75;;;24.40;99.90;;;;;;4932095;28;20059;-79
2021/07/10 10:47:54;;;;;;;21.33;19.52;;;24.20;99.90;;;;;;4946323;28;20269;-78
2021/07/10 10:50:25;;;;;;;20.33;18.50;;;24.10;99.90;;;;;;4950365;28;20043;-78
2021/07/10 10:52:56;;;;;;;21.05;19.35;;;24.00;99.90;;;;;;4962421;28;20055;-78
2021/07/10 10:55:33;;;;;;;22.45;20.42;;;23.90;99.90;;;;;;4948886;28;20047;-78
2021/07/10 10:58:01;;;;;;;23.30;21.15;;;23.40;99.90;;;;;;4963255;28;20117;-78
2021/07/10 11:00:33;;;;;;;20.80;18.85;;;23.00;99.90;;;;;;4947917;28;20035;-78
2021/07/10 11:03:02;;;;;;;21.52;19.42;;;23.10;99.90;;;;;;4913615;29;20050;-78
2021/07/10 11:05:32;;;;;;;20.27;18.63;;;23.20;99.90;;;;;;4928352;28;20051;-78
2021/07/10 11:08:29;;;;;;;19.95;18.23;;;23.30;99.90;;;;;;4929228;28;20051;-79
2021/07/10 11:10:58;;;;;;;21.25;19.55;;;23.40;99.90;;;;;;4923207;28;20518;-78
2021/07/10 11:13:32;;;;;;;21.25;19.35;;;23.20;99.90;;;;;;4966404;28;20069;-78
2021/07/10 11:16:20;;;;;;;21.85;19.88;;;23.00;99.90;;;;;;4951074;28;20081;-77
2021/07/10 11:18:47;;;;;;;19.33;17.63;;;23.30;99.90;;;;;;4950964;28;20198;-78
2021/07/10 11:21:37;;;;;;;20.75;18.83;;;23.50;99.90;;;;;;4965455;28;20066;-78
2021/07/10 11:24:20;;;;;;;20.35;18.42;;;23.70;99.90;;;;;;4968103;28;20660;-77
2021/07/10 11:26:55;;;;;;;20.08;18.20;;;23.30;99.90;;;;;;4967805;28;20042;-78
2021/07/10 11:29:33;;;;;;;20.70;19.00;;;22.80;99.90;;;;;;4938831;29;20054;-78
2021/07/10 11:32:13;;;;;;;19.70;17.77;;;22.60;99.90;;;;;;4936407;28;20062;-77
2021/07/10 11:34:50;;;;;;;19.92;18.05;;;22.20;99.90;;;;;;4948547;28;20055;-77
2021/07/10 11:37:19;;;;;;;20.58;18.67;;;21.60;99.90;;;;;;4931520;29;20138;-78
2021/07/10 11:40:06;;;;;;;22.42;20.27;;;21.70;99.90;;;;;;4952398;28;20117;-78
2021/07/10 11:42:41;;;;;;;22.15;20.25;;;21.90;99.90;;;;;;4966543;28;20462;-78
2021/07/10 11:45:14;;;;;;;24.63;22.25;;;21.70;99.90;;;;;;4967594;28;20718;-78
2021/07/10 11:47:55;;;;;;;23.20;20.90;;;21.60;99.90;;;;;;4951097;28;20055;-78
2021/07/10 11:50:28;;;;;;;23.48;21.38;;;21.50;99.90;;;;;;4965859;28;20082;-77
2021/07/10 11:52:56;;;;;;;23.75;21.40;;;21.40;99.90;;;;;;4949781;28;20050;-77
2021/07/10 11:55:25;;;;;;;23.40;21.17;;;21.40;99.90;;;;;;4949762;28;20053;-78
2021/07/10 11:57:52;;;;;;;24.55;21.85;;;21.20;99.90;;;;;;4950683;28;20134;-78
2021/07/10 12:00:23;;;;;;;22.65;20.38;;;21.20;99.90;;;;;;4949337;28;20126;-77
2021/07/10 12:02:50;;;;;;;21.40;19.25;;;21.30;99.90;;;;;;4947989;28;20239;-78
2021/07/10 12:05:21;;;;;;;20.42;18.60;;;21.40;99.90;;;;;;4943671;28;20059;-78
2021/07/10 12:07:54;;;;;;;21.17;19.05;;;21.60;99.90;;;;;;4966059;28;20200;-77
2021/07/10 12:10:39;;;;;;;19.75;17.77;;;21.90;99.90;;;;;;4948849;28;20117;-79
2021/07/10 12:13:12;;;;;;;21.65;19.35;;;22.10;99.90;;;;;;4939084;28;20046;-77
2021/07/10 12:15:47;;;;;;;22.02;18.42;;;22.00;99.90;;;;;;4928327;29;20071;-79
2021/07/10 12:18:14;;;;;;;;;;;21.80;99.90;;;;;;4968702;28;20054;-77
2021/07/10 12:20:57;;;;;;;20.75;18.90;;;21.80;99.90;;;;;;4948040;28;19960;-78
2021/07/10 12:23:33;;;;;;;25.30;18.80;;;21.80;99.90;;;;;;4949738;28;20070;-77
2021/07/10 12:26:01;;;;;;;19.13;17.20;;;21.70;99.90;;;;;;4966136;28;20062;-78
2021/07/10 12:28:50;;;;;;;19.05;17.17;;;21.60;99.90;;;;;;4965849;28;20054;-78
2021/07/10 12:31:21;;;;;;;20.13;17.95;;;21.30;99.90;;;;;;4933166;28;20051;-78
2021/07/10 12:33:57;;;;;;;19.92;18.00;;;21.20;99.90;;;;;;4949496;28;20054;-78
2021/07/10 12:36:29;;;;;;;21.35;19.27;;;21.30;99.90;;;;;;4945322;28;20179;-78